Time;durP1;ratioP1;P1;durP2;ratioP2;P2;SDS_P1;SDS_P2;PMS_P1;PMS_P2;Temp;Humidity;BMP_temperature;BMP_pressure;BME280_temperature;BME280_humidity;BME280_pressure;Samples;Min_cycle;Max_cycle;Signal;HPM_P1;HPM_P2
2023/04/29 00:00:45;;;;;;;4.35;2.88;;;4.70;99.90;;;;;;4923833;28;20151;-64
2023/04/29 00:03:11;;;;;;;4.70;3.33;;;4.70;99.90;;;;;;4923193;28;20051;-67
2023/04/29 00:05:39;;;;;;;3.90;2.60;;;4.70;99.90;;;;;;4922514;29;20107;-69
2023/04/29 00:08:06;;;;;;;8.68;3.53;;;4.70;99.90;;;;;;4925410;29;20138;-69
2023/04/29 00:10:34;;;;;;;5.97;3.40;;;4.70;99.90;;;;;;4941471;28;20118;-65
2023/04/29 00:13:01;;;;;;;8.15;3.63;;;4.70;99.90;;;;;;4941966;28;20063;-65
2023/04/29 00:15:28;;;;;;;5.55;3.00;;;4.70;99.90;;;;;;4943281;28;20059;-67
2023/04/29 00:17:55;;;;;;;9.52;3.65;;;4.70;99.90;;;;;;4941039;28;20112;-65
2023/04/29 00:20:22;;;;;;;7.60;3.42;;;4.70;99.90;;;;;;4942414;28;20520;-66
2023/04/29 00:22:48;;;;;;;7.03;3.55;;;4.70;99.90;;;;;;4942548;28;20054;-65
2023/04/29 00:25:15;;;;;;;10.15;3.30;;;4.80;99.90;;;;;;4940448;28;20149;-66
2023/04/29 00:27:42;;;;;;;5.03;3.20;;;4.80;99.90;;;;;;4945498;28;20065;-64
2023/04/29 00:30:10;;;;;;;6.40;3.05;;;4.80;99.90;;;;;;4941759;28;20147;-65
2023/04/29 00:32:37;;;;;;;6.32;2.45;;;4.90;99.90;;;;;;4942519;28;20126;-67
2023/04/29 00:35:04;;;;;;;6.03;2.42;;;4.80;99.90;;;;;;4937108;28;20079;-64
2023/04/29 00:37:31;;;;;;;4.30;2.63;;;4.80;99.90;;;;;;4942558;29;20051;-67
2023/04/29 00:39:58;;;;;;;4.78;2.17;;;4.90;99.90;;;;;;4942545;28;20066;-65
2023/04/29 00:42:26;;;;;;;7.45;2.13;;;4.90;99.90;;;;;;4942830;28;20062;-67
2023/04/29 00:44:54;;;;;;;5.75;2.97;;;4.90;99.90;;;;;;4942476;28;20382;-65
2023/04/29 00:47:22;;;;;;;5.45;2.10;;;4.90;99.90;;;;;;4943627;28;20130;-64
2023/04/29 00:49:49;;;;;;;5.80;2.17;;;4.90;99.90;;;;;;4955348;28;20062;-67
2023/04/29 00:52:17;;;;;;;6.85;2.60;;;4.90;99.90;;;;;;4930129;28;20083;-70
2023/04/29 00:54:44;;;;;;;8.80;2.65;;;4.90;99.90;;;;;;4937080;28;20154;-64
2023/04/29 00:57:12;;;;;;;2.88;1.95;;;4.90;99.90;;;;;;4948651;28;20050;-68
2023/04/29 00:59:39;;;;;;;4.10;1.92;;;4.90;99.90;;;;;;4959977;28;20143;-63
2023/04/29 01:02:06;;;;;;;9.48;2.95;;;4.90;99.90;;;;;;4942899;28;20058;-66
2023/04/29 01:04:33;;;;;;;5.20;2.10;;;4.90;99.90;;;;;;4953686;28;20051;-63
2023/04/29 01:07:17;;;;;;;9.50;3.00;;;4.90;99.90;;;;;;4946803;28;20047;-68
2023/04/29 01:10:06;;;;;;;2.50;2.17;;;4.90;99.90;;;;;;4949265;28;20106;-64
2023/04/29 01:12:44;;;;;;;8.13;3.65;;;4.90;99.90;;;;;;4956809;28;20067;-64
2023/04/29 01:15:24;;;;;;;4.13;2.80;;;4.90;99.90;;;;;;4957647;28;20225;-68
2023/04/29 01:18:04;;;;;;;3.95;2.25;;;4.90;99.90;;;;;;4946105;28;20062;-66
2023/04/29 01:20:33;;;;;;;4.03;2.92;;;4.90;99.90;;;;;;4956790;28;20688;-71
2023/04/29 01:23:00;;;;;;;5.90;2.75;;;4.80;99.90;;;;;;4950334;28;20066;-72
2023/04/29 01:25:27;;;;;;;6.25;2.78;;;4.90;99.90;;;;;;4966594;28;20585;-63
2023/04/29 01:28:42;;;;;;;3.60;2.22;;;4.80;99.90;;;;;;4935722;28;20047;-66
2023/04/29 01:31:35;;;;;;;3.15;2.20;;;4.80;99.90;;;;;;4942801;28;20065;-66
2023/04/29 01:34:21;;;;;;;3.47;1.67;;;4.70;99.90;;;;;;4959678;28;20425;-64
2023/04/29 01:37:03;;;;;;;3.47;2.10;;;4.70;99.90;;;;;;4951451;28;20493;-67
2023/04/29 01:39:59;;;;;;;4.57;2.63;;;4.60;99.90;;;;;;4955987;28;20051;-63
2023/04/29 01:42:42;;;;;;;6.90;2.38;;;4.50;99.90;;;;;;4953637;28;20082;-63
2023/04/29 01:45:16;;;;;;;6.78;2.33;;;4.50;99.90;;;;;;4953029;28;20069;-63
2023/04/29 01:47:45;;;;;;;6.50;3.17;;;4.50;99.90;;;;;;4946763;28;20059;-64
2023/04/29 01:50:12;;;;;;;5.00;3.17;;;4.50;99.90;;;;;;4948603;28;20043;-66
2023/04/29 01:52:40;;;;;;;8.65;3.00;;;4.40;99.90;;;;;;4964995;28;20047;-66
2023/04/29 01:55:08;;;;;;;3.40;3.10;;;4.40;99.90;;;;;;4958436;28;20040;-64
2023/04/29 01:57:46;;;;;;;12.90;3.55;;;4.40;99.90;;;;;;4952511;28;20121;-67
2023/04/29 02:00:26;;;;;;;5.88;2.97;;;4.40;99.90;;;;;;4959215;28;20058;-70
2023/04/29 02:02:53;;;;;;;6.78;3.22;;;4.40;99.90;;;;;;4943742;28;20433;-62
2023/04/29 02:05:32;;;;;;;5.47;2.42;;;4.40;99.90;;;;;;4959995;28;20484;-68
2023/04/29 02:08:00;;;;;;;5.57;3.75;;;4.40;99.90;;;;;;4954799;28;20051;-72
2023/04/29 02:10:28;;;;;;;6.15;2.58;;;4.40;99.90;;;;;;4955862;28;20066;-63
2023/04/29 02:13:10;;;;;;;;;;;4.40;99.90;;;;;;4946216;28;20079;-61
2023/04/29 02:15:38;;;;;;;8.18;3.50;;;4.40;99.90;;;;;;4931209;28;20387;-62
2023/04/29 02:18:05;;;;;;;9.23;3.45;;;4.50;99.90;;;;;;4947437;28;20047;-67
2023/04/29 02:20:32;;;;;;;3.95;2.72;;;4.50;99.90;;;;;;4960166;28;20043;-64
2023/04/29 02:22:59;;;;;;;6.85;3.45;;;4.50;99.90;;;;;;4944953;28;20055;-64
2023/04/29 02:25:25;;;;;;;5.03;2.78;;;4.50;99.90;;;;;;4961730;28;20149;-65
2023/04/29 02:27:52;;;;;;;9.65;2.95;;;4.50;99.90;;;;;;4952497;28;20051;-62
2023/04/29 02:30:20;;;;;;;6.68;3.30;;;4.50;99.90;;;;;;4940615;28;20055;-65
2023/04/29 02:32:46;;;;;;;6.82;3.22;;;4.50;99.90;;;;;;4938190;28;20047;-66
2023/04/29 02:35:13;;;;;;;10.95;3.90;;;4.50;99.90;;;;;;4939168;28;20457;-67
2023/04/29 02:37:40;;;;;;;9.38;3.85;;;4.50;99.90;;;;;;4956707;28;20469;-66
2023/04/29 02:40:08;;;;;;;6.22;3.10;;;4.50;99.90;;;;;;4944155;28;20063;-67
2023/04/29 02:42:35;;;;;;;11.57;5.15;;;4.50;99.90;;;;;;4960651;28;20398;-69
2023/04/29 02:45:02;;;;;;;8.27;2.80;;;4.50;99.90;;;;;;4946800;28;20512;-68
2023/04/29 02:47:29;;;;;;;6.38;2.80;;;4.50;99.90;;;;;;4945026;28;20394;-69
2023/04/29 02:49:56;;;;;;;4.50;2.50;;;4.50;99.90;;;;;;4943270;28;20055;-63
2023/04/29 02:52:23;;;;;;;4.82;2.72;;;4.50;99.90;;;;;;4941414;28;20063;-66
2023/04/29 02:54:50;;;;;;;4.68;3.05;;;4.50;99.90;;;;;;4960864;28;20083;-69
2023/04/29 02:57:17;;;;;;;6.68;3.70;;;4.50;99.90;;;;;;4943619;28;20150;-66
2023/04/29 02:59:44;;;;;;;7.90;3.35;;;4.50;99.90;;;;;;4958709;28;20063;-63
2023/04/29 03:02:11;;;;;;;8.10;4.18;;;4.50;99.90;;;;;;4940939;28;20051;-68
2023/04/29 03:04:39;;;;;;;8.02;3.55;;;4.60;99.90;;;;;;4946611;28;20066;-63
2023/04/29 03:07:06;;;;;;;5.03;2.72;;;4.60;99.90;;;;;;4954374;28;20055;-67
2023/04/29 03:09:34;;;;;;;13.65;4.15;;;4.60;99.90;;;;;;4956533;28;20059;-70
2023/04/29 03:12:01;;;;;;;7.22;4.30;;;4.50;99.90;;;;;;4966753;28;21143;-63
2023/04/29 03:14:29;;;;;;;6.50;3.85;;;4.60;99.90;;;;;;4957377;28;20075;-67
2023/04/29 03:16:57;;;;;;;9.75;3.95;;;4.60;99.90;;;;;;4956017;28;20142;-66
2023/04/29 03:19:24;;;;;;;6.55;2.92;;;4.70;99.90;;;;;;4949272;28;20055;-68
2023/04/29 03:21:51;;;;;;;5.03;3.05;;;4.70;99.90;;;;;;4944586;28;20134;-68
2023/04/29 03:24:20;;;;;;;8.32;3.88;;;4.70;99.90;;;;;;4957980;28;20066;-67
2023/04/29 03:26:47;;;;;;;7.65;3.53;;;4.70;99.90;;;;;;4962322;28;20051;-67
2023/04/29 03:29:14;;;;;;;12.40;4.15;;;4.80;99.90;;;;;;4957879;28;20044;-70
2023/04/29 03:31:41;;;;;;;4.72;3.38;;;4.80;99.90;;;;;;4946671;28;20055;-64
2023/04/29 03:34:09;;;;;;;6.38;3.17;;;4.80;99.90;;;;;;4948414;28;20497;-64
2023/04/29 03:36:40;;;;;;;8.73;3.83;;;4.80;99.90;;;;;;4942332;28;20062;-66
2023/04/29 03:39:07;;;;;;;4.40;3.38;;;4.80;99.90;;;;;;4947042;28;20110;-66
2023/04/29 03:41:35;;;;;;;5.97;3.53;;;4.80;99.90;;;;;;4957696;28;20044;-64
2023/04/29 03:44:01;;;;;;;7.47;3.58;;;4.80;99.90;;;;;;4942003;28;20368;-66
2023/04/29 03:46:29;;;;;;;4.90;3.33;;;4.80;99.90;;;;;;4947466;28;20061;-64
2023/04/29 03:48:56;;;;;;;7.55;3.58;;;4.80;99.90;;;;;;4948034;28;20063;-67
2023/04/29 03:51:24;;;;;;;9.30;3.17;;;4.80;99.90;;;;;;4936551;28;20051;-66
2023/04/29 03:53:56;;;;;;;6.20;4.07;;;4.80;99.90;;;;;;4941002;28;20058;-69
2023/04/29 03:56:24;;;;;;;5.95;3.83;;;4.80;99.90;;;;;;4938583;28;20102;-64
2023/04/29 03:58:52;;;;;;;6.28;3.38;;;4.80;99.90;;;;;;4962894;28;20477;-64
2023/04/29 04:01:20;;;;;;;4.82;3.55;;;4.90;99.90;;;;;;4958442;28;20130;-71
2023/04/29 04:03:47;;;;;;;12.32;3.80;;;4.90;99.90;;;;;;4943491;28;20051;-67
2023/04/29 04:06:15;;;;;;;7.95;4.13;;;4.90;99.90;;;;;;4957115;28;20055;-66
2023/04/29 04:08:42;;;;;;;8.27;4.82;;;4.90;99.90;;;;;;4955933;28;20113;-74
2023/04/29 04:11:16;;;;;;;8.70;3.42;;;5.00;99.90;;;;;;4954295;28;20358;-69
2023/04/29 04:13:48;;;;;;;11.45;3.85;;;5.10;99.90;;;;;;4956070;28;20059;-63
2023/04/29 04:16:16;;;;;;;7.28;3.15;;;5.00;99.90;;;;;;4934550;28;20058;-68
2023/04/29 04:18:43;;;;;;;7.65;4.50;;;5.10;99.90;;;;;;4953486;28;20051;-64
2023/04/29 04:21:11;;;;;;;5.38;4.75;;;5.10;99.90;;;;;;4952116;28;20577;-64
2023/04/29 04:23:41;;;;;;;7.78;4.55;;;5.10;99.90;;;;;;4955860;28;20059;-63
2023/04/29 04:26:10;;;;;;;5.38;3.42;;;5.10;99.90;;;;;;4924720;28;20044;-64
2023/04/29 04:29:00;;;;;;;8.45;3.50;;;5.20;99.90;;;;;;4941045;28;20312;-70
2023/04/29 04:31:33;;;;;;;4.50;2.53;;;5.20;99.90;;;;;;4955040;28;20051;-66
2023/04/29 04:34:00;;;;;;;4.90;2.85;;;5.20;99.90;;;;;;4955108;28;20090;-65
2023/04/29 04:36:31;;;;;;;7.43;3.88;;;5.30;99.90;;;;;;4955494;28;20044;-68
2023/04/29 04:38:58;;;;;;;3.78;2.58;;;5.30;99.90;;;;;;4962361;28;20052;-64
2023/04/29 04:41:25;;;;;;;5.60;2.90;;;5.30;99.90;;;;;;4944540;28;20490;-67
2023/04/29 04:43:52;;;;;;;6.55;2.47;;;5.40;99.90;;;;;;4958008;28;20050;-62
2023/04/29 04:46:28;;;;;;;10.13;2.95;;;5.40;99.90;;;;;;4957432;28;20165;-63
2023/04/29 04:49:03;;;;;;;6.07;2.70;;;5.50;99.90;;;;;;4937870;28;20097;-63
2023/04/29 04:51:32;;;;;;;3.80;2.33;;;5.50;99.90;;;;;;4957047;28;20044;-63
2023/04/29 04:53:59;;;;;;;5.57;2.47;;;5.60;99.90;;;;;;4955642;28;20055;-69
2023/04/29 04:56:28;;;;;;;3.50;2.10;;;5.60;99.90;;;;;;4941126;28;20495;-63
2023/04/29 04:58:55;;;;;;;9.77;2.97;;;5.70;99.90;;;;;;4953990;28;20138;-69
2023/04/29 05:01:22;;;;;;;11.70;2.72;;;5.70;99.90;;;;;;4956111;28;20501;-69
2023/04/29 05:03:49;;;;;;;3.22;2.72;;;5.70;99.90;;;;;;4940681;28;20047;-68
2023/04/29 05:06:16;;;;;;;6.78;2.25;;;5.80;99.90;;;;;;4927475;28;20494;-70
2023/04/29 05:08:45;;;;;;;7.43;3.10;;;5.80;99.90;;;;;;4941254;28;20169;-66
2023/04/29 05:11:21;;;;;;;2.55;2.00;;;5.90;99.90;;;;;;4954681;28;20065;-66
2023/04/29 05:14:03;;;;;;;2.80;2.50;;;5.90;99.90;;;;;;4954199;28;20051;-64
2023/04/29 05:16:30;;;;;;;5.47;2.40;;;5.90;99.90;;;;;;4934975;28;20804;-61
2023/04/29 05:18:57;;;;;;;2.55;1.90;;;5.90;99.90;;;;;;4958141;28;20066;-64
2023/04/29 05:21:30;;;;;;;4.65;2.72;;;6.00;99.90;;;;;;4956348;28;20065;-65
2023/04/29 05:23:57;;;;;;;4.65;3.17;;;6.00;99.90;;;;;;4952451;28;20047;-65
2023/04/29 05:26:25;;;;;;;5.15;2.90;;;6.10;99.90;;;;;;4941938;28;20500;-66
2023/04/29 05:28:55;;;;;;;5.20;1.88;;;6.10;99.90;;;;;;4956467;28;20055;-64
2023/04/29 05:31:23;;;;;;;8.85;2.90;;;6.20;99.90;;;;;;4940466;28;20070;-69
2023/04/29 05:33:50;;;;;;;3.90;2.22;;;6.20;99.90;;;;;;4941521;28;20066;-67
2023/04/29 05:36:17;;;;;;;3.10;2.72;;;6.30;99.90;;;;;;4936114;28;20893;-71
2023/04/29 05:38:44;;;;;;;8.20;3.08;;;6.40;99.90;;;;;;4936722;28;20055;-67
2023/04/29 05:41:12;;;;;;;3.65;1.85;;;6.50;99.90;;;;;;4937883;28;20052;-74
2023/04/29 05:43:44;;;;;;;5.63;2.60;;;6.50;99.90;;;;;;4952171;28;20091;-70
2023/04/29 05:46:13;;;;;;;4.75;2.28;;;6.60;99.90;;;;;;4943742;28;20073;-75
2023/04/29 05:48:40;;;;;;;5.05;2.08;;;6.70;99.90;;;;;;4956852;28;20074;-65
2023/04/29 05:51:08;;;;;;;5.03;2.13;;;6.80;99.90;;;;;;4954449;28;20044;-64
2023/04/29 05:53:37;;;;;;;3.78;1.80;;;6.80;99.90;;;;;;4954206;28;20066;-64
2023/04/29 05:56:07;;;;;;;3.47;2.20;;;6.90;99.90;;;;;;4935831;28;20150;-64
2023/04/29 05:58:34;;;;;;;4.40;2.08;;;6.90;99.90;;;;;;4962775;28;20055;-64
2023/04/29 06:01:02;;;;;;;4.35;1.90;;;6.90;99.90;;;;;;4955130;28;20115;-67
2023/04/29 06:03:30;;;;;;;4.07;2.33;;;7.00;99.90;;;;;;4954929;28;20662;-63
2023/04/29 06:06:16;;;;;;;4.88;2.72;;;7.00;99.90;;;;;;4925499;29;20410;-65
2023/04/29 06:09:00;;;;;;;4.97;1.75;;;7.10;99.90;;;;;;4949343;28;20054;-66
2023/04/29 06:11:29;;;;;;;2.33;1.98;;;7.10;99.90;;;;;;4959083;28;20070;-71
2023/04/29 06:13:56;;;;;;;3.70;1.85;;;7.20;99.90;;;;;;4961689;28;20071;-64
2023/04/29 06:16:23;;;;;;;4.75;1.77;;;7.30;99.90;;;;;;4948032;28;20509;-67
2023/04/29 06:18:51;;;;;;;3.72;2.22;;;7.40;99.90;;;;;;4949064;28;20106;-69
2023/04/29 06:21:17;;;;;;;4.97;2.35;;;7.50;99.90;;;;;;4949733;28;20074;-65
2023/04/29 06:23:45;;;;;;;3.78;1.85;;;7.60;99.90;;;;;;4966765;28;20059;-65
2023/04/29 06:26:16;;;;;;;1.75;1.33;;;7.70;99.90;;;;;;4949524;28;20060;-72
2023/04/29 06:28:43;;;;;;;4.72;2.15;;;7.70;99.90;;;;;;4960828;28;20067;-63
2023/04/29 06:31:11;;;;;;;5.25;1.67;;;7.80;99.90;;;;;;4961880;28;20054;-65
2023/04/29 06:33:38;;;;;;;4.20;1.20;;;7.80;99.90;;;;;;4967384;28;20399;-64
2023/04/29 06:36:05;;;;;;;5.47;1.40;;;7.80;99.90;;;;;;4962307;28;20604;-64
2023/04/29 06:38:58;;;;;;;5.78;1.30;;;7.80;99.90;;;;;;4940605;28;20048;-65
2023/04/29 06:41:26;;;;;;;3.05;1.30;;;7.80;99.90;;;;;;4950068;28;20520;-67
2023/04/29 06:44:21;;;;;;;2.78;1.40;;;7.90;99.90;;;;;;4949243;28;20067;-66
2023/04/29 06:47:20;;;;;;;2.53;1.40;;;8.00;99.90;;;;;;4949770;28;20055;-64
2023/04/29 06:49:54;;;;;;;3.15;1.42;;;8.10;99.90;;;;;;4949527;28;20055;-65
2023/04/29 06:52:21;;;;;;;3.97;1.30;;;8.10;99.90;;;;;;4948117;28;20138;-63
2023/04/29 06:54:48;;;;;;;3.80;1.48;;;8.10;99.90;;;;;;4950517;28;20569;-68
2023/04/29 06:57:17;;;;;;;3.17;1.90;;;8.20;99.90;;;;;;4958056;28;20501;-72
2023/04/29 06:59:45;;;;;;;2.50;1.42;;;8.20;99.90;;;;;;4953908;28;20051;-66
2023/04/29 07:02:12;;;;;;;2.75;1.55;;;8.30;99.90;;;;;;4949506;28;20145;-65
2023/04/29 07:04:39;;;;;;;2.75;1.70;;;8.40;99.90;;;;;;4951718;28;20064;-68
2023/04/29 07:07:06;;;;;;;6.72;1.73;;;8.50;99.90;;;;;;4961111;28;20076;-64
2023/04/29 07:09:33;;;;;;;3.28;1.98;;;8.70;99.90;;;;;;4940118;28;20051;-69
2023/04/29 07:12:01;;;;;;;2.13;1.35;;;8.80;99.90;;;;;;4936354;28;20086;-65
2023/04/29 07:14:28;;;;;;;4.00;1.38;;;9.00;99.90;;;;;;4940158;28;20105;-75
2023/04/29 07:16:55;;;;;;;2.92;1.35;;;9.00;99.90;;;;;;4947196;28;20418;-65
2023/04/29 07:19:22;;;;;;;2.78;1.00;;;9.00;99.90;;;;;;4946809;28;20087;-66
2023/04/29 07:21:49;;;;;;;1.67;1.10;;;9.10;99.90;;;;;;4944938;28;20142;-65
2023/04/29 07:24:16;;;;;;;2.45;1.05;;;9.20;99.90;;;;;;4944587;28;20059;-72
2023/04/29 07:26:45;;;;;;;1.90;1.00;;;9.10;99.90;;;;;;4943616;28;20456;-64
2023/04/29 07:29:15;;;;;;;3.33;1.15;;;9.30;99.90;;;;;;4943647;28;20304;-63
2023/04/29 07:31:41;;;;;;;2.28;0.98;;;9.30;99.90;;;;;;4957343;28;20126;-68
2023/04/29 07:34:08;;;;;;;1.48;0.65;;;9.40;99.90;;;;;;4942626;28;20155;-68
2023/04/29 07:36:35;;;;;;;2.22;0.73;;;9.50;99.90;;;;;;4959495;28;20047;-63
2023/04/29 07:39:02;;;;;;;2.15;1.10;;;9.50;99.60;;;;;;4955150;28;20055;-68
2023/04/29 07:41:30;;;;;;;1.85;1.35;;;9.60;98.60;;;;;;4955491;28;20055;-65
2023/04/29 07:43:57;;;;;;;2.70;1.15;;;9.60;98.90;;;;;;4960173;28;20047;-70
2023/04/29 07:46:24;;;;;;;4.10;1.25;;;9.70;98.50;;;;;;4951265;28;20053;-63
2023/04/29 07:48:51;;;;;;;3.47;0.95;;;9.80;98.20;;;;;;4957940;28;20062;-64
2023/04/29 07:51:18;;;;;;;2.50;0.88;;;9.80;97.40;;;;;;4958200;28;20152;-67
2023/04/29 07:53:45;;;;;;;0.98;0.90;;;10.00;98.90;;;;;;4945810;28;20114;-63
2023/04/29 07:56:12;;;;;;;2.95;1.02;;;10.10;97.00;;;;;;4943246;28;20055;-65
2023/04/29 07:58:39;;;;;;;2.35;0.77;;;10.10;95.20;;;;;;4936756;28;20063;-63
2023/04/29 08:01:10;;;;;;;2.97;1.13;;;10.20;96.40;;;;;;4931117;28;20082;-65
2023/04/29 08:03:39;;;;;;;2.30;1.08;;;10.30;95.60;;;;;;4958217;28;20056;-63
2023/04/29 08:06:08;;;;;;;2.03;1.07;;;10.30;96.20;;;;;;4956340;28;20421;-62
2023/04/29 08:08:35;;;;;;;2.17;1.00;;;10.30;96.90;;;;;;4938170;28;20055;-63
2023/04/29 08:11:02;;;;;;;4.13;1.08;;;10.40;97.10;;;;;;4956935;28;20058;-68
2023/04/29 08:13:29;;;;;;;3.75;1.05;;;10.50;95.90;;;;;;4955068;28;20071;-63
2023/04/29 08:15:56;;;;;;;4.22;1.48;;;10.50;95.70;;;;;;4956880;28;20779;-65
2023/04/29 08:18:23;;;;;;;3.03;1.60;;;10.50;96.00;;;;;;4942975;28;20074;-64
2023/04/29 08:20:50;;;;;;;2.90;1.20;;;10.60;95.60;;;;;;4953407;28;20090;-64
2023/04/29 08:23:17;;;;;;;3.95;1.55;;;10.70;95.40;;;;;;4943236;28;20054;-72
2023/04/29 08:25:44;;;;;;;2.38;1.50;;;10.80;94.90;;;;;;4942823;28;20047;-65
2023/04/29 08:28:11;;;;;;;4.03;1.83;;;10.80;94.70;;;;;;4944813;28;20598;-64
2023/04/29 08:30:40;;;;;;;3.75;1.30;;;10.80;95.60;;;;;;4939962;28;20059;-64
2023/04/29 08:33:08;;;;;;;4.50;1.48;;;10.80;94.60;;;;;;4948627;28;20077;-68
2023/04/29 08:35:37;;;;;;;5.03;1.55;;;10.80;94.90;;;;;;4946728;28;20057;-65
2023/04/29 08:38:05;;;;;;;1.65;1.13;;;11.00;95.90;;;;;;4939907;28;20097;-66
2023/04/29 08:40:50;;;;;;;4.10;1.42;;;11.00;95.30;;;;;;4939687;28;20051;-62
2023/04/29 08:43:19;;;;;;;4.35;1.60;;;11.20;95.90;;;;;;4941127;28;20050;-73
2023/04/29 08:45:47;;;;;;;4.28;1.55;;;11.40;95.90;;;;;;4942475;28;20046;-65
2023/04/29 08:48:18;;;;;;;2.45;1.83;;;11.60;95.50;;;;;;4941731;28;20141;-69
2023/04/29 08:50:45;;;;;;;2.25;1.30;;;11.60;95.30;;;;;;4943849;28;20136;-65
2023/04/29 08:53:13;;;;;;;3.67;1.60;;;11.50;95.50;;;;;;4940635;28;20406;-65
2023/04/29 08:55:47;;;;;;;5.90;1.92;;;11.60;95.20;;;;;;4946831;28;20066;-67
2023/04/29 08:58:15;;;;;;;3.10;1.50;;;11.80;95.60;;;;;;4939612;28;20098;-65
2023/04/29 09:00:43;;;;;;;8.38;2.78;;;11.80;95.70;;;;;;4945750;28;20070;-62
2023/04/29 09:03:15;;;;;;;7.75;2.50;;;12.00;95.00;;;;;;4944549;28;20150;-65
2023/04/29 09:05:48;;;;;;;3.47;1.83;;;12.10;95.80;;;;;;4940357;28;20043;-63
2023/04/29 09:08:15;;;;;;;5.00;1.52;;;12.00;94.60;;;;;;4937880;28;20051;-69
2023/04/29 09:10:42;;;;;;;2.53;2.08;;;12.10;94.40;;;;;;4941178;28;20052;-66
2023/04/29 09:13:25;;;;;;;2.92;2.10;;;12.10;95.20;;;;;;4944630;28;20063;-65
2023/04/29 09:15:53;;;;;;;4.53;2.30;;;11.90;94.00;;;;;;4924350;29;20059;-63
2023/04/29 09:18:49;;;;;;;6.47;1.88;;;11.80;94.70;;;;;;4943637;28;20051;-67
2023/04/29 09:21:21;;;;;;;2.88;2.20;;;11.90;95.40;;;;;;4943522;28;20047;-62
2023/04/29 09:23:57;;;;;;;4.00;2.03;;;11.80;94.90;;;;;;4940776;28;20051;-69
2023/04/29 09:26:24;;;;;;;4.03;2.47;;;11.90;95.30;;;;;;4919747;28;20151;-67
2023/04/29 09:29:14;;;;;;;2.85;1.92;;;11.80;94.80;;;;;;4924446;29;20052;-65
2023/04/29 09:31:42;;;;;;;3.75;2.33;;;11.80;95.00;;;;;;4935091;28;20513;-63
2023/04/29 09:34:13;;;;;;;2.95;2.35;;;11.90;95.60;;;;;;4943069;28;20085;-65
2023/04/29 09:36:45;;;;;;;2.72;1.80;;;12.10;95.50;;;;;;4941832;28;20186;-70
2023/04/29 09:39:15;;;;;;;3.92;1.80;;;12.00;95.10;;;;;;4943800;28;20050;-65
2023/04/29 09:41:54;;;;;;;3.73;2.50;;;11.90;95.30;;;;;;4946356;28;20441;-64
2023/04/29 09:44:22;;;;;;;2.70;1.52;;;11.90;95.00;;;;;;4947003;28;20477;-66
2023/04/29 09:47:02;;;;;;;4.82;2.47;;;12.00;95.40;;;;;;4936798;28;20143;-64
2023/04/29 09:49:39;;;;;;;5.88;2.72;;;12.20;94.80;;;;;;4941048;28;20062;-65
2023/04/29 09:52:17;;;;;;;4.03;2.08;;;12.00;94.50;;;;;;4947493;28;20059;-65
2023/04/29 09:54:45;;;;;;;4.47;2.08;;;12.00;95.00;;;;;;4941261;28;20086;-65
2023/04/29 09:57:15;;;;;;;5.30;2.75;;;11.80;95.00;;;;;;4947998;28;20514;-65
2023/04/29 09:59:42;;;;;;;;;;;11.80;94.60;;;;;;4948252;28;20094;-66
2023/04/29 10:02:19;;;;;;;3.83;3.30;;;11.80;94.70;;;;;;4948331;28;19937;-63
2023/04/29 10:04:53;;;;;;;4.20;3.72;;;12.00;95.10;;;;;;4939802;28;20059;-65
2023/04/29 10:07:21;;;;;;;3.03;2.42;;;12.00;94.00;;;;;;4935124;28;20059;-65
2023/04/29 10:09:49;;;;;;;2.10;1.88;;;12.00;94.20;;;;;;4922127;29;20494;-66
2023/04/29 10:12:19;;;;;;;6.93;2.25;;;12.10;94.80;;;;;;4921836;28;20134;-70
2023/04/29 10:14:58;;;;;;;4.90;2.63;;;12.30;94.70;;;;;;4938103;28;20190;-65
2023/04/29 10:17:41;;;;;;;7.07;3.38;;;12.30;93.90;;;;;;4944043;28;20063;-65
2023/04/29 10:20:12;;;;;;;4.35;2.47;;;12.30;94.00;;;;;;4940216;28;20055;-66
2023/04/29 10:22:46;;;;;;;4.43;2.15;;;12.20;94.50;;;;;;4938621;28;20087;-63
2023/04/29 10:25:17;;;;;;;6.68;2.83;;;12.30;93.20;;;;;;4931776;28;20058;-68
2023/04/29 10:27:45;;;;;;;3.90;2.53;;;12.30;93.80;;;;;;4938824;28;20059;-65
2023/04/29 10:30:17;;;;;;;4.15;2.50;;;12.40;93.70;;;;;;4935475;28;20058;-63
2023/04/29 10:32:46;;;;;;;4.05;2.08;;;12.40;94.10;;;;;;4934501;28;20051;-63
2023/04/29 10:35:21;;;;;;;8.40;2.67;;;12.40;94.40;;;;;;4921779;28;20115;-66
2023/04/29 10:37:48;;;;;;;3.35;2.58;;;12.40;93.80;;;;;;4938275;28;20154;-68
2023/04/29 10:40:26;;;;;;;3.17;2.08;;;12.50;94.10;;;;;;4948317;28;20082;-70
2023/04/29 10:42:54;;;;;;;7.40;2.38;;;12.50;94.20;;;;;;4940890;28;20075;-68
2023/04/29 10:45:26;;;;;;;4.35;2.58;;;12.50;93.20;;;;;;4951599;28;20556;-63
2023/04/29 10:48:04;;;;;;;5.53;2.70;;;12.50;93.70;;;;;;4941425;28;20176;-64
2023/04/29 10:50:32;;;;;;;3.95;2.10;;;12.60;93.40;;;;;;4946546;28;20077;-68
2023/04/29 10:53:04;;;;;;;5.50;2.30;;;12.70;93.20;;;;;;4944764;28;20062;-66
2023/04/29 10:55:34;;;;;;;5.78;2.65;;;12.90;93.50;;;;;;4939827;28;20462;-66
2023/04/29 10:58:02;;;;;;;;;;;13.10;93.00;;;;;;4942474;28;20426;-62
2023/04/29 11:00:33;;;;;;;4.05;2.80;;;13.00;92.60;;;;;;4947749;28;20319;-63
2023/04/29 11:03:04;;;;;;;3.30;2.03;;;13.10;93.20;;;;;;4943601;28;20082;-67
2023/04/29 11:05:35;;;;;;;3.50;2.60;;;13.20;92.70;;;;;;4942034;28;20078;-66
2023/04/29 11:08:11;;;;;;;5.20;2.63;;;13.30;92.50;;;;;;4940797;28;20634;-67
2023/04/29 11:10:42;;;;;;;3.05;2.13;;;13.40;92.60;;;;;;4946360;28;20577;-61
2023/04/29 11:13:25;;;;;;;3.47;2.38;;;13.40;92.40;;;;;;4941902;28;20043;-70
2023/04/29 11:16:02;;;;;;;3.85;2.40;;;13.40;92.80;;;;;;4943232;28;20086;-66
2023/04/29 11:18:30;;;;;;;3.97;2.78;;;13.80;93.10;;;;;;4949898;28;22341;-62
2023/04/29 11:21:07;;;;;;;5.00;2.80;;;13.80;92.70;;;;;;4942044;28;20060;-64
2023/04/29 11:23:35;;;;;;;4.47;2.78;;;13.60;92.40;;;;;;4945577;28;20515;-65
2023/04/29 11:26:03;;;;;;;5.50;3.10;;;13.70;93.00;;;;;;4945683;28;20051;-70
2023/04/29 11:28:31;;;;;;;5.32;3.20;;;13.80;92.40;;;;;;4946696;28;20158;-61
2023/04/29 11:30:58;;;;;;;5.88;3.05;;;14.00;93.00;;;;;;4944342;28;20067;-63
2023/04/29 11:33:26;;;;;;;4.78;2.78;;;14.20;93.00;;;;;;4943844;28;20130;-64
2023/04/29 11:35:54;;;;;;;6.43;3.60;;;14.30;92.40;;;;;;4950114;28;20455;-64
2023/04/29 11:38:25;;;;;;;6.38;4.07;;;14.90;93.20;;;;;;4928337;28;20170;-64
2023/04/29 11:40:54;;;;;;;7.53;4.57;;;14.90;91.30;;;;;;4935356;28;20106;-62
2023/04/29 11:43:22;;;;;;;10.65;4.22;;;15.00;92.40;;;;;;4935518;28;20043;-67
2023/04/29 11:45:50;;;;;;;7.18;4.05;;;14.90;91.20;;;;;;4943910;28;20059;-62
2023/04/29 11:48:22;;;;;;;6.75;3.63;;;14.80;91.70;;;;;;4923452;28;20413;-66
2023/04/29 11:50:51;;;;;;;5.03;3.88;;;14.70;91.30;;;;;;4932176;28;20109;-63
2023/04/29 11:53:24;;;;;;;8.73;5.20;;;14.40;91.90;;;;;;4932361;28;20054;-67
2023/04/29 11:55:54;;;;;;;5.18;3.80;;;14.20;92.20;;;;;;4927706;29;20055;-63
2023/04/29 11:58:22;;;;;;;5.00;4.35;;;14.20;92.30;;;;;;4940365;28;20491;-65
2023/04/29 12:00:50;;;;;;;7.88;4.72;;;14.30;92.40;;;;;;4937952;28;20143;-63
2023/04/29 12:03:19;;;;;;;12.43;6.40;;;14.30;92.40;;;;;;4936486;28;20085;-71
2023/04/29 12:05:47;;;;;;;8.10;4.60;;;14.10;92.60;;;;;;4945578;28;20161;-63
2023/04/29 12:08:14;;;;;;;11.88;4.75;;;14.20;93.40;;;;;;4942782;28;20502;-70
2023/04/29 12:10:41;;;;;;;12.15;5.82;;;14.40;93.30;;;;;;4946254;28;20065;-68
2023/04/29 12:13:08;;;;;;;11.90;5.35;;;14.40;93.00;;;;;;4945956;28;20083;-69
2023/04/29 12:15:36;;;;;;;15.00;7.38;;;14.30;93.10;;;;;;4937821;28;20363;-69
2023/04/29 12:18:07;;;;;;;9.30;5.82;;;14.50;93.70;;;;;;4936254;28;20410;-67
2023/04/29 12:20:34;;;;;;;9.55;5.60;;;14.50;93.40;;;;;;4935453;28;20110;-66
2023/04/29 12:23:21;;;;;;;10.32;5.53;;;14.20;93.50;;;;;;4937793;28;20110;-69
2023/04/29 12:25:53;;;;;;;8.25;5.75;;;14.40;94.30;;;;;;4939694;28;20079;-63
2023/04/29 12:28:20;;;;;;;6.40;5.68;;;14.20;93.70;;;;;;4940753;28;20149;-64
2023/04/29 12:30:49;;;;;;;8.00;5.22;;;14.20;94.30;;;;;;4938347;28;20067;-66
2023/04/29 12:33:27;;;;;;;6.20;5.57;;;14.30;94.20;;;;;;4939284;28;20054;-67
2023/04/29 12:35:56;;;;;;;5.55;4.90;;;14.40;94.90;;;;;;4940968;28;20051;-70
2023/04/29 12:38:29;;;;;;;6.70;6.10;;;14.60;94.50;;;;;;4950677;28;20146;-66
2023/04/29 12:41:04;;;;;;;6.95;5.57;;;14.60;93.80;;;;;;4941536;28;20465;-66
2023/04/29 12:43:34;;;;;;;9.85;5.95;;;14.60;94.80;;;;;;4945088;28;20050;-72
2023/04/29 12:46:03;;;;;;;8.45;5.75;;;14.70;94.80;;;;;;4940968;28;20082;-70
2023/04/29 12:48:39;;;;;;;6.47;5.18;;;14.90;94.40;;;;;;4940673;28;20055;-66
2023/04/29 12:51:09;;;;;;;8.10;5.68;;;15.00;94.50;;;;;;4941058;28;20062;-74
2023/04/29 12:53:36;;;;;;;6.82;5.47;;;15.10;94.90;;;;;;4941105;28;20157;-68
2023/04/29 12:56:04;;;;;;;7.43;5.07;;;15.40;95.40;;;;;;4944319;28;20698;-67
2023/04/29 12:58:33;;;;;;;7.25;5.13;;;15.70;94.70;;;;;;4942508;28;20047;-68
2023/04/29 13:01:00;;;;;;;7.50;5.80;;;15.80;94.00;;;;;;4937647;28;20051;-65
2023/04/29 13:03:27;;;;;;;7.93;7.13;;;15.80;93.30;;;;;;4942834;28;20054;-66
2023/04/29 13:05:54;;;;;;;8.45;6.80;;;15.60;93.80;;;;;;4944235;28;20055;-69
2023/04/29 13:08:21;;;;;;;9.50;7.07;;;15.60;93.40;;;;;;4938016;28;20059;-68